Time;durP1;ratioP1;P1;durP2;ratioP2;P2;SDS_P1;SDS_P2;PMS_P1;PMS_P2;Temp;Humidity;BMP_temperature;BMP_pressure;BME280_temperature;BME280_humidity;BME280_pressure;Samples;Min_cycle;Max_cycle;Signal;HPM_P1;HPM_P2
2022/10/19 00:01:11;;;;;;;4.32;2.70;;;27.80;71.70;;;;;;5055594;28;20698;-63
2022/10/19 00:03:39;;;;;;;6.40;2.10;;;27.80;68.60;;;;;;5038163;28;20033;-63
2022/10/19 00:06:24;;;;;;;5.95;2.00;;;27.90;69.40;;;;;;5048488;28;20040;-67
2022/10/19 00:09:04;;;;;;;4.60;2.47;;;28.10;64.90;;;;;;5046930;28;20020;-65
2022/10/19 00:11:34;;;;;;;5.38;2.08;;;28.10;66.30;;;;;;5073771;28;20041;-65
2022/10/19 00:14:02;;;;;;;3.35;1.27;;;28.20;65.30;;;;;;5043556;28;20118;-64
2022/10/19 00:16:33;;;;;;;4.10;1.48;;;28.10;65.30;;;;;;5041215;28;20075;-63
2022/10/19 00:19:02;;;;;;;2.53;1.75;;;28.10;69.80;;;;;;5046191;28;20021;-64
2022/10/19 00:21:30;;;;;;;4.95;1.98;;;28.50;68.00;;;;;;5042565;28;20033;-64
2022/10/19 00:23:57;;;;;;;3.83;1.77;;;28.90;67.60;;;;;;5045926;28;20102;-64
2022/10/19 00:26:25;;;;;;;3.47;1.67;;;29.10;67.80;;;;;;5042933;28;20032;-65
2022/10/19 00:28:55;;;;;;;3.15;1.60;;;29.30;66.10;;;;;;5042211;28;20494;-62
2022/10/19 00:31:23;;;;;;;3.42;1.50;;;29.30;65.60;;;;;;5050398;28;20044;-63
2022/10/19 00:33:50;;;;;;;3.30;1.20;;;29.30;62.60;;;;;;5042715;28;20027;-64
2022/10/19 00:36:22;;;;;;;4.97;1.55;;;29.60;63.20;;;;;;5042171;28;20042;-63
2022/10/19 00:38:50;;;;;;;5.25;1.77;;;29.40;59.60;;;;;;5056109;28;20021;-63
2022/10/19 00:41:19;;;;;;;3.50;1.58;;;29.40;59.90;;;;;;5043447;28;20029;-62
2022/10/19 00:43:58;;;;;;;3.00;1.73;;;29.40;62.40;;;;;;5058798;28;20031;-62
2022/10/19 00:46:28;;;;;;;3.47;1.48;;;29.30;59.90;;;;;;5058310;28;20029;-64
2022/10/19 00:49:04;;;;;;;4.75;1.60;;;29.40;61.80;;;;;;5041619;28;20133;-64
2022/10/19 00:51:32;;;;;;;3.55;1.38;;;29.50;57.20;;;;;;5059429;28;20050;-62
2022/10/19 00:54:03;;;;;;;3.92;1.85;;;29.60;60.20;;;;;;5053481;28;20024;-62
2022/10/19 00:56:30;;;;;;;2.70;1.52;;;29.60;58.60;;;;;;5055161;28;20055;-63
2022/10/19 00:58:58;;;;;;;3.92;1.73;;;29.50;55.90;;;;;;5044248;28;20394;-64
2022/10/19 01:01:28;;;;;;;3.95;1.83;;;29.70;60.40;;;;;;5068051;28;20012;-64
2022/10/19 01:03:55;;;;;;;3.22;1.35;;;29.70;59.20;;;;;;5056205;28;20036;-64
2022/10/19 01:06:24;;;;;;;2.45;1.25;;;29.70;57.10;;;;;;5045304;28;20017;-64
2022/10/19 01:08:51;;;;;;;3.22;2.00;;;29.50;53.60;;;;;;5038744;28;20108;-62
2022/10/19 01:11:52;;;;;;;2.95;1.25;;;29.50;54.90;;;;;;5047123;28;20036;-63
2022/10/19 01:14:31;;;;;;;3.03;1.80;;;29.60;58.50;;;;;;5051244;28;20025;-63
2022/10/19 01:17:05;;;;;;;3.70;1.70;;;29.80;58.50;;;;;;5047529;28;20032;-63
2022/10/19 01:19:58;;;;;;;6.07;1.67;;;30.10;60.60;;;;;;5044863;28;20036;-64
2022/10/19 01:23:15;;;;;;;3.17;1.30;;;30.30;58.10;;;;;;5057581;28;20057;-64
2022/10/19 01:26:10;;;;;;;2.63;1.55;;;30.10;54.40;;;;;;5045167;28;20032;-62
2022/10/19 01:29:16;;;;;;;3.22;1.50;;;30.20;55.00;;;;;;5051883;28;20043;-62
2022/10/19 01:32:10;;;;;;;6.28;2.22;;;29.90;53.60;;;;;;5049313;28;20044;-63
2022/10/19 01:35:10;;;;;;;4.15;1.33;;;29.70;54.10;;;;;;5046808;28;20336;-64
2022/10/19 01:37:49;;;;;;;3.42;1.55;;;29.40;55.40;;;;;;5056308;28;20067;-62
2022/10/19 01:40:49;;;;;;;3.38;1.50;;;29.60;58.10;;;;;;5045041;28;20017;-63
2022/10/19 01:43:32;;;;;;;2.53;1.52;;;29.70;56.10;;;;;;5046127;28;20048;-64
2022/10/19 01:46:26;;;;;;;2.58;1.35;;;29.80;56.10;;;;;;5062395;28;20406;-62
2022/10/19 01:49:33;;;;;;;2.45;1.40;;;29.60;52.80;;;;;;5065585;28;20025;-64
2022/10/19 01:52:05;;;;;;;6.28;1.60;;;29.80;52.40;;;;;;5024796;28;20075;-63
2022/10/19 01:54:43;;;;;;;2.90;1.33;;;29.70;52.90;;;;;;5051371;28;20025;-64
2022/10/19 01:57:13;;;;;;;5.05;1.48;;;29.50;52.60;;;;;;5042581;28;20072;-68
2022/10/19 01:59:41;;;;;;;3.22;1.60;;;29.30;54.10;;;;;;5046233;28;20056;-61
2022/10/19 02:02:11;;;;;;;3.20;1.27;;;29.00;54.00;;;;;;5046518;28;20024;-64
2022/10/19 02:04:39;;;;;;;4.38;1.48;;;28.90;54.20;;;;;;5047055;28;20359;-64
2022/10/19 02:07:08;;;;;;;3.00;1.55;;;28.80;53.20;;;;;;5047993;28;20025;-64
2022/10/19 02:09:36;;;;;;;6.25;1.52;;;29.10;54.20;;;;;;5048610;28;20033;-63
2022/10/19 02:12:07;;;;;;;2.25;1.67;;;29.50;55.80;;;;;;5043733;28;20032;-62
2022/10/19 02:14:39;;;;;;;4.30;1.60;;;29.90;52.40;;;;;;5067802;28;20113;-62
2022/10/19 02:17:16;;;;;;;5.22;1.80;;;29.90;52.10;;;;;;5045077;28;20485;-63
2022/10/19 02:19:44;;;;;;;4.57;1.63;;;29.80;52.00;;;;;;5048051;28;20123;-63
2022/10/19 02:22:12;;;;;;;2.85;1.60;;;29.80;54.10;;;;;;5050028;28;20032;-62
2022/10/19 02:24:40;;;;;;;3.15;1.40;;;29.20;54.20;;;;;;5038307;28;20519;-63
2022/10/19 02:27:08;;;;;;;2.83;1.55;;;29.10;53.80;;;;;;5051128;28;20024;-64
2022/10/19 02:29:37;;;;;;;2.72;1.30;;;29.20;54.40;;;;;;5054113;28;20084;-62
2022/10/19 02:32:06;;;;;;;5.50;1.70;;;29.30;51.40;;;;;;5051000;28;20037;-63
2022/10/19 02:34:34;;;;;;;2.90;1.30;;;29.40;52.20;;;;;;5068122;28;20025;-62
2022/10/19 02:37:02;;;;;;;2.40;1.45;;;29.40;52.00;;;;;;5052086;28;20052;-62
2022/10/19 02:39:30;;;;;;;3.97;1.55;;;29.40;52.70;;;;;;5060020;28;20024;-62
2022/10/19 02:41:57;;;;;;;2.40;1.17;;;29.40;53.40;;;;;;5057787;28;20044;-62
2022/10/19 02:44:41;;;;;;;4.88;1.65;;;29.50;51.60;;;;;;5063453;28;20096;-63
2022/10/19 02:47:18;;;;;;;2.42;1.60;;;29.90;52.00;;;;;;5064488;28;20153;-63
2022/10/19 02:49:47;;;;;;;3.40;1.20;;;30.40;52.90;;;;;;5057977;28;20445;-62
2022/10/19 02:52:15;;;;;;;6.70;1.27;;;30.70;52.30;;;;;;5054304;28;20059;-62
2022/10/19 02:54:44;;;;;;;4.35;1.48;;;30.60;49.30;;;;;;5060481;28;20024;-63
2022/10/19 02:57:23;;;;;;;3.30;1.52;;;30.40;50.10;;;;;;5046981;28;20017;-63
2022/10/19 02:59:51;;;;;;;2.65;1.33;;;30.10;50.20;;;;;;5044326;28;20029;-62
2022/10/19 03:02:20;;;;;;;4.10;1.30;;;30.00;50.00;;;;;;5054950;28;20025;-63
2022/10/19 03:04:47;;;;;;;2.53;1.38;;;30.20;51.40;;;;;;5065793;28;20024;-63
2022/10/19 03:07:17;;;;;;;2.13;1.25;;;30.20;49.80;;;;;;5055098;28;20111;-63
2022/10/19 03:09:45;;;;;;;3.55;1.40;;;30.40;50.50;;;;;;5067273;28;20037;-62
2022/10/19 03:12:13;;;;;;;6.45;1.73;;;30.20;48.80;;;;;;5050477;28;20476;-62
2022/10/19 03:14:41;;;;;;;2.75;1.45;;;29.80;49.90;;;;;;5049474;28;20378;-67
2022/10/19 03:17:08;;;;;;;3.20;1.40;;;29.90;50.00;;;;;;5055213;28;20556;-63
2022/10/19 03:19:36;;;;;;;3.70;1.70;;;30.00;49.20;;;;;;5064460;28;20481;-59
2022/10/19 03:22:05;;;;;;;7.32;1.70;;;30.30;50.70;;;;;;5044617;28;20031;-62
2022/10/19 03:24:33;;;;;;;3.00;1.60;;;30.50;50.00;;;;;;5048251;28;20677;-61
2022/10/19 03:27:00;;;;;;;5.05;2.33;;;30.20;50.00;;;;;;5038433;28;20143;-61
2022/10/19 03:29:28;;;;;;;8.65;2.70;;;30.10;57.00;;;;;;5042903;28;20035;-62
2022/10/19 03:31:55;;;;;;;11.00;3.75;;;29.40;59.30;;;;;;5049300;28;20021;-61
2022/10/19 03:34:22;;;;;;;10.70;2.65;;;28.70;63.20;;;;;;5043454;28;20020;-61
2022/10/19 03:36:50;;;;;;;8.13;3.05;;;28.30;64.80;;;;;;5046429;28;20078;-62
2022/10/19 03:39:17;;;;;;;8.00;3.30;;;27.80;67.60;;;;;;5044630;28;20020;-62
2022/10/19 03:41:45;;;;;;;8.02;3.15;;;27.70;68.10;;;;;;5048759;28;20025;-60
2022/10/19 03:44:12;;;;;;;5.85;2.35;;;27.50;70.60;;;;;;5048503;28;20024;-61
2022/10/19 03:46:40;;;;;;;6.35;2.40;;;27.20;69.40;;;;;;5051335;28;20036;-61
2022/10/19 03:49:08;;;;;;;11.68;2.92;;;27.10;71.20;;;;;;5047699;28;20031;-62
2022/10/19 03:51:36;;;;;;;5.82;2.40;;;26.90;72.50;;;;;;5059480;28;20117;-61
2022/10/19 03:54:11;;;;;;;3.65;2.35;;;27.10;72.10;;;;;;5053970;28;20032;-61
2022/10/19 03:56:38;;;;;;;5.97;2.67;;;26.60;71.60;;;;;;5042540;28;20052;-62
2022/10/19 03:59:06;;;;;;;10.90;2.60;;;26.40;72.80;;;;;;5050171;28;20029;-62
2022/10/19 04:01:38;;;;;;;5.65;2.75;;;26.20;73.10;;;;;;5060842;28;20658;-61
2022/10/19 04:04:08;;;;;;;6.30;2.60;;;26.10;74.10;;;;;;5058285;28;20048;-61
2022/10/19 04:06:38;;;;;;;4.90;2.30;;;25.90;74.90;;;;;;5057568;28;20362;-63
2022/10/19 04:09:07;;;;;;;5.28;2.15;;;25.80;76.50;;;;;;5060303;28;20375;-61
2022/10/19 04:11:35;;;;;;;6.70;2.20;;;25.70;77.50;;;;;;5054979;28;20037;-61
2022/10/19 04:14:03;;;;;;;4.38;1.95;;;25.90;76.90;;;;;;5058193;28;20390;-61
2022/10/19 04:16:31;;;;;;;5.53;1.20;;;25.90;75.30;;;;;;5050604;28;20123;-61
2022/10/19 04:18:59;;;;;;;7.47;2.00;;;25.80;74.90;;;;;;5043602;28;20029;-61
2022/10/19 04:21:29;;;;;;;4.90;1.20;;;25.40;76.50;;;;;;5041705;28;20032;-62
2022/10/19 04:24:06;;;;;;;7.25;1.40;;;25.20;77.70;;;;;;5063043;28;20684;-61
2022/10/19 04:26:37;;;;;;;9.15;1.40;;;25.10;77.90;;;;;;5052721;28;20074;-61
2022/10/19 04:29:05;;;;;;;4.13;1.00;;;25.10;79.10;;;;;;5062358;28;20036;-61
2022/10/19 04:31:32;;;;;;;6.85;1.67;;;24.70;77.50;;;;;;5049737;28;20029;-62
2022/10/19 04:34:00;;;;;;;3.88;1.20;;;24.50;79.60;;;;;;5048758;28;20021;-61
2022/10/19 04:36:27;;;;;;;4.78;1.17;;;24.30;80.70;;;;;;5053567;28;20665;-61
2022/10/19 04:38:54;;;;;;;6.22;2.05;;;24.20;80.00;;;;;;5054446;28;20498;-62
2022/10/19 04:41:22;;;;;;;10.80;1.65;;;24.10;80.10;;;;;;5047317;28;20029;-62
2022/10/19 04:43:55;;;;;;;5.63;1.35;;;24.00;80.20;;;;;;5062036;28;20503;-61
2022/10/19 04:46:22;;;;;;;7.47;1.33;;;23.80;80.60;;;;;;5043216;28;20040;-61
2022/10/19 04:48:50;;;;;;;10.18;1.95;;;23.50;82.10;;;;;;5059015;28;20075;-61
2022/10/19 04:51:18;;;;;;;6.22;1.40;;;23.30;83.00;;;;;;5052617;28;20141;-61
2022/10/19 04:53:46;;;;;;;8.13;1.92;;;23.30;83.60;;;;;;5050106;28;20392;-61
2022/10/19 04:56:24;;;;;;;4.65;1.60;;;23.10;84.00;;;;;;5054921;28;20382;-62
2022/10/19 04:58:56;;;;;;;12.95;1.80;;;23.00;83.90;;;;;;5056258;28;20021;-61
2022/10/19 05:01:24;;;;;;;5.43;1.77;;;22.90;84.60;;;;;;5056276;28;20551;-63
2022/10/19 05:03:57;;;;;;;6.20;1.58;;;22.70;85.60;;;;;;5058987;28;20028;-62
2022/10/19 05:06:25;;;;;;;6.22;1.63;;;22.60;86.80;;;;;;5044401;28;20024;-61
2022/10/19 05:08:52;;;;;;;3.45;1.30;;;22.50;87.20;;;;;;5045375;28;20024;-62
2022/10/19 05:11:20;;;;;;;6.32;1.90;;;22.40;87.50;;;;;;5046880;28;20359;-62
2022/10/19 05:13:48;;;;;;;7.13;1.60;;;22.40;88.30;;;;;;5050318;28;20029;-61
2022/10/19 05:16:19;;;;;;;5.28;1.20;;;22.30;89.40;;;;;;5053282;28;20421;-61
2022/10/19 05:18:51;;;;;;;9.50;1.70;;;22.30;90.20;;;;;;5051379;28;20029;-61
2022/10/19 05:21:22;;;;;;;6.53;1.77;;;22.30;89.90;;;;;;5051644;28;20013;-62
2022/10/19 05:23:54;;;;;;;6.32;1.75;;;22.20;90.30;;;;;;5058571;28;20036;-60
2022/10/19 05:26:24;;;;;;;5.05;1.35;;;22.20;90.70;;;;;;5059557;28;20021;-60
2022/10/19 05:28:55;;;;;;;4.00;1.83;;;22.20;90.90;;;;;;5070127;28;20028;-61
2022/10/19 05:31:25;;;;;;;6.10;1.60;;;22.10;91.20;;;;;;5058920;28;20029;-62
2022/10/19 05:33:53;;;;;;;5.70;1.88;;;22.10;91.20;;;;;;5052075;28;20028;-60
2022/10/19 05:36:20;;;;;;;5.43;1.95;;;22.00;91.00;;;;;;5047802;28;20033;-61
2022/10/19 05:38:50;;;;;;;8.18;1.92;;;22.00;91.40;;;;;;5058048;28;20152;-61
2022/10/19 05:41:18;;;;;;;4.82;2.30;;;22.00;91.40;;;;;;5062878;28;20013;-61
2022/10/19 05:43:46;;;;;;;6.88;2.30;;;21.90;91.50;;;;;;5058561;28;20051;-61
2022/10/19 05:46:18;;;;;;;11.52;2.15;;;21.90;91.70;;;;;;5052579;28;20053;-62
2022/10/19 05:48:46;;;;;;;5.45;2.42;;;21.90;91.70;;;;;;5053259;28;20025;-61
2022/10/19 05:51:16;;;;;;;5.55;1.85;;;21.90;91.60;;;;;;5051522;28;20052;-61
2022/10/19 05:53:44;;;;;;;6.60;2.08;;;21.90;91.70;;;;;;5055629;28;20035;-61
2022/10/19 05:56:30;;;;;;;10.32;2.88;;;21.90;91.40;;;;;;5049661;28;20108;-60
2022/10/19 05:59:01;;;;;;;7.95;2.35;;;21.80;91.20;;;;;;5049074;28;20020;-62
2022/10/19 06:01:30;;;;;;;7.95;3.10;;;21.80;91.10;;;;;;5063292;28;20037;-62
2022/10/19 06:03:58;;;;;;;7.93;2.70;;;21.80;90.90;;;;;;5055251;28;20020;-61
2022/10/19 06:06:26;;;;;;;7.53;2.20;;;21.70;90.70;;;;;;5053259;28;20601;-61
2022/10/19 06:08:56;;;;;;;5.07;2.20;;;21.70;91.00;;;;;;5050096;28;20079;-61
2022/10/19 06:11:36;;;;;;;8.98;1.85;;;21.80;91.30;;;;;;5062060;28;20484;-62
2022/10/19 06:14:06;;;;;;;6.95;2.58;;;21.70;91.50;;;;;;5051957;28;20025;-62
2022/10/19 06:16:34;;;;;;;4.18;2.95;;;21.70;91.70;;;;;;5057678;28;20032;-61
2022/10/19 06:19:02;;;;;;;8.65;2.83;;;21.60;91.90;;;;;;5069410;28;20028;-62
2022/10/19 06:21:31;;;;;;;8.63;2.55;;;21.60;91.80;;;;;;5061874;28;20385;-62
2022/10/19 06:24:01;;;;;;;7.47;2.15;;;21.60;92.00;;;;;;5065298;28;20023;-62
2022/10/19 06:26:30;;;;;;;9.98;2.20;;;21.60;92.40;;;;;;5052807;28;20025;-63
2022/10/19 06:29:01;;;;;;;7.18;1.85;;;21.60;92.30;;;;;;5052588;28;20029;-63
2022/10/19 06:31:30;;;;;;;6.75;1.65;;;21.60;92.40;;;;;;5055710;28;20133;-61
2022/10/19 06:33:57;;;;;;;3.65;1.20;;;21.60;91.90;;;;;;5051361;28;20071;-60
2022/10/19 06:36:28;;;;;;;5.28;2.25;;;21.60;91.40;;;;;;5060141;28;20037;-61
2022/10/19 06:38:55;;;;;;;5.45;1.60;;;21.60;91.00;;;;;;5065076;28;20017;-61
2022/10/19 06:41:23;;;;;;;13.35;1.70;;;21.50;91.40;;;;;;5049571;28;20029;-61
2022/10/19 06:43:51;;;;;;;3.28;1.63;;;21.60;91.80;;;;;;5062064;28;20032;-60
2022/10/19 06:46:22;;;;;;;7.65;1.70;;;21.50;91.80;;;;;;5056822;28;20025;-61
2022/10/19 06:48:57;;;;;;;5.30;1.60;;;21.50;92.20;;;;;;5057459;28;20040;-60
2022/10/19 06:51:27;;;;;;;4.70;1.42;;;21.50;92.30;;;;;;5051805;28;20094;-61
2022/10/19 06:53:55;;;;;;;6.57;2.20;;;21.40;92.20;;;;;;5058385;28;20444;-61
2022/10/19 06:56:26;;;;;;;6.97;2.17;;;21.40;93.30;;;;;;5056942;28;20029;-64
2022/10/19 06:58:54;;;;;;;6.18;1.38;;;21.40;93.50;;;;;;5045934;28;20540;-60
2022/10/19 07:01:23;;;;;;;7.80;1.65;;;21.30;93.30;;;;;;5059267;28;20083;-61
2022/10/19 07:03:54;;;;;;;7.78;1.40;;;21.30;93.80;;;;;;5062141;28;20486;-60
2022/10/19 07:06:22;;;;;;;5.75;1.40;;;21.20;94.00;;;;;;5058596;28;20374;-60
2022/10/19 07:08:51;;;;;;;8.32;1.73;;;21.20;94.80;;;;;;5056310;28;20032;-60
2022/10/19 07:11:21;;;;;;;11.10;2.22;;;21.10;95.10;;;;;;5054582;28;20060;-62
2022/10/19 07:13:48;;;;;;;4.82;1.42;;;21.10;95.50;;;;;;5047877;28;20029;-60
2022/10/19 07:16:18;;;;;;;8.27;2.10;;;21.00;96.00;;;;;;5045824;28;20021;-59
2022/10/19 07:18:46;;;;;;;9.93;2.15;;;21.00;96.80;;;;;;5056025;28;20028;-60
2022/10/19 07:21:15;;;;;;;8.57;1.55;;;21.00;97.10;;;;;;5051569;28;20110;-61
2022/10/19 07:23:44;;;;;;;8.88;1.85;;;20.90;97.30;;;;;;5051162;28;20514;-61
2022/10/19 07:26:25;;;;;;;11.05;2.10;;;20.90;97.70;;;;;;5043831;28;20060;-63
2022/10/19 07:28:54;;;;;;;8.30;1.70;;;20.80;97.90;;;;;;5043332;28;20043;-64
2022/10/19 07:31:24;;;;;;;7.95;2.70;;;20.80;98.30;;;;;;5053626;28;20104;-64
2022/10/19 07:33:59;;;;;;;9.30;2.10;;;20.70;98.60;;;;;;5055623;28;20413;-62
2022/10/19 07:36:28;;;;;;;9.45;1.80;;;20.60;98.90;;;;;;5041824;28;20638;-67
2022/10/19 07:38:56;;;;;;;9.77;1.67;;;20.50;99.20;;;;;;5045219;28;20056;-63
2022/10/19 07:41:25;;;;;;;8.38;1.95;;;20.40;99.60;;;;;;5041119;28;20681;-64
2022/10/19 07:43:53;;;;;;;10.50;2.05;;;20.30;99.80;;;;;;5037455;28;20033;-65
2022/10/19 07:46:24;;;;;;;11.55;2.40;;;20.20;99.90;;;;;;5046253;28;20025;-63
2022/10/19 07:48:52;;;;;;;8.75;1.73;;;20.10;99.90;;;;;;5039662;28;20086;-64
2022/10/19 07:51:20;;;;;;;7.47;2.40;;;20.10;99.90;;;;;;5043962;28;20033;-66
2022/10/19 07:53:48;;;;;;;14.00;2.38;;;20.00;99.90;;;;;;5047780;28;20021;-62
2022/10/19 07:56:17;;;;;;;8.80;1.95;;;19.90;99.90;;;;;;5051654;28;20025;-64
2022/10/19 07:58:45;;;;;;;9.50;2.00;;;19.90;99.90;;;;;;5051145;28;20032;-64
2022/10/19 08:01:18;;;;;;;9.45;2.10;;;19.80;99.90;;;;;;5045402;28;20029;-66
2022/10/19 08:03:46;;;;;;;7.03;2.17;;;19.70;99.90;;;;;;5042404;28;20606;-67
2022/10/19 08:06:17;;;;;;;9.13;1.85;;;19.70;99.90;;;;;;5043683;28;20044;-65
2022/10/19 08:08:46;;;;;;;9.15;1.95;;;19.60;99.90;;;;;;5035594;28;20465;-65
2022/10/19 08:11:16;;;;;;;10.88;2.20;;;19.50;99.90;;;;;;5045718;28;20046;-66
2022/10/19 08:13:44;;;;;;;8.07;1.90;;;19.50;99.90;;;;;;5041638;28;20028;-64
2022/10/19 08:16:26;;;;;;;8.45;2.33;;;19.40;99.90;;;;;;5047802;28;20033;-64
2022/10/19 08:18:57;;;;;;;6.60;1.85;;;19.30;99.90;;;;;;5041166;28;20064;-64
2022/10/19 08:21:26;;;;;;;9.95;2.65;;;19.20;99.90;;;;;;5050722;28;20033;-63
2022/10/19 08:23:53;;;;;;;10.43;3.00;;;19.10;99.90;;;;;;5037752;28;20040;-60
2022/10/19 08:26:21;;;;;;;9.05;2.10;;;19.00;99.90;;;;;;5045970;28;20028;-61
2022/10/19 08:28:49;;;;;;;6.20;2.60;;;18.90;99.90;;;;;;5053939;28;20475;-62
2022/10/19 08:31:20;;;;;;;18.98;3.08;;;18.80;99.90;;;;;;5046122;28;20052;-61
2022/10/19 08:33:50;;;;;;;11.32;3.05;;;18.80;99.90;;;;;;5042720;28;20032;-63
2022/10/19 08:36:21;;;;;;;9.60;2.25;;;18.80;99.90;;;;;;5046644;28;20064;-61
2022/10/19 08:38:49;;;;;;;9.25;2.50;;;18.80;99.90;;;;;;5050955;28;20042;-63
2022/10/19 08:41:30;;;;;;;11.00;2.40;;;18.70;99.90;;;;;;5045517;28;20366;-63
2022/10/19 08:44:31;;;;;;;10.75;2.40;;;18.70;99.90;;;;;;5041951;28;20021;-64
2022/10/19 08:47:16;;;;;;;14.52;2.25;;;18.70;99.90;;;;;;5038187;28;20393;-63
2022/10/19 08:49:45;;;;;;;9.25;2.47;;;18.60;99.90;;;;;;5041533;28;20537;-61
2022/10/19 08:52:19;;;;;;;15.32;2.67;;;18.50;99.90;;;;;;5047796;28;20110;-62
2022/10/19 08:55:13;;;;;;;7.63;2.38;;;18.50;99.90;;;;;;5036472;28;20040;-66
2022/10/19 08:57:49;;;;;;;10.27;3.03;;;18.40;99.90;;;;;;5040935;28;20126;-63
2022/10/19 09:00:51;;;;;;;11.98;2.95;;;18.40;99.90;;;;;;5041550;28;20853;-62
2022/10/19 09:03:48;;;;;;;12.48;4.65;;;18.40;99.90;;;;;;5062445;28;20029;-63
2022/10/19 09:06:33;;;;;;;16.33;3.67;;;18.30;99.90;;;;;;5032713;28;20029;-63
2022/10/19 09:09:01;;;;;;;7.85;2.28;;;18.20;99.90;;;;;;5054517;28;20036;-62
2022/10/19 09:11:33;;;;;;;10.05;3.05;;;18.20;99.90;;;;;;5058110;28;20045;-63
2022/10/19 09:14:17;;;;;;;14.13;3.30;;;18.10;99.90;;;;;;5049780;28;20024;-60
2022/10/19 09:16:45;;;;;;;14.75;3.83;;;18.20;99.90;;;;;;5050207;28;20033;-61
2022/10/19 09:19:28;;;;;;;17.15;3.45;;;18.30;99.90;;;;;;5049253;28;20028;-62
2022/10/19 09:22:00;;;;;;;6.53;2.40;;;18.40;99.90;;;;;;5050445;28;20635;-63
2022/10/19 09:24:38;;;;;;;16.20;2.78;;;18.40;99.90;;;;;;5044101;28;20041;-62
2022/10/19 09:27:09;;;;;;;9.93;2.13;;;18.50;99.90;;;;;;5054828;28;20090;-60
2022/10/19 09:29:39;;;;;;;9.77;2.13;;;18.50;99.90;;;;;;5044664;28;20075;-61
2022/10/19 09:32:33;;;;;;;11.50;2.47;;;18.60;99.90;;;;;;5043701;28;20069;-61
2022/10/19 09:35:07;;;;;;;13.70;3.25;;;18.70;99.90;;;;;;5045850;28;20156;-62
2022/10/19 09:37:42;;;;;;;14.98;2.75;;;18.80;99.90;;;;;;5052865;28;20037;-60
2022/10/19 09:40:18;;;;;;;19.35;2.63;;;18.80;99.90;;;;;;5050274;28;20115;-61
2022/10/19 09:42:49;;;;;;;10.82;2.58;;;18.80;99.90;;;;;;5049227;28;20074;-61
2022/10/19 09:45:35;;;;;;;10.68;2.45;;;18.90;99.90;;;;;;5058773;28;20024;-62
2022/10/19 09:48:10;;;;;;;13.70;3.00;;;18.90;99.90;;;;;;5057243;28;20078;-61
2022/10/19 09:50:43;;;;;;;10.73;3.38;;;19.00;99.90;;;;;;5052637;28;20029;-62
2022/10/19 09:53:21;;;;;;;10.82;2.55;;;19.00;99.90;;;;;;5056373;28;20466;-61
2022/10/19 09:56:02;;;;;;;13.55;2.58;;;19.00;99.90;;;;;;5054724;28;20486;-61
2022/10/19 09:58:30;;;;;;;14.75;3.30;;;19.10;99.90;;;;;;5036567;28;20044;-62
2022/10/19 10:00:58;;;;;;;9.50;2.42;;;19.00;99.90;;;;;;5057979;28;20060;-59
2022/10/19 10:03:34;;;;;;;8.57;2.00;;;19.10;99.90;;;;;;5047021;28;20589;-61
2022/10/19 10:06:07;;;;;;;16.70;2.65;;;19.10;99.90;;;;;;5065004;28;20367;-60
2022/10/19 10:08:38;;;;;;;8.07;2.33;;;19.10;99.90;;;;;;5050639;28;20086;-61
2022/10/19 10:11:31;;;;;;;16.27;2.60;;;19.10;99.90;;;;;;5046353;28;20305;-63
2022/10/19 10:14:05;;;;;;;11.05;1.98;;;19.10;99.90;;;;;;5065111;28;20149;-64
2022/10/19 10:16:35;;;;;;;11.85;2.50;;;19.10;99.90;;;;;;5052881;28;20025;-65
2022/10/19 10:19:12;;;;;;;13.27;2.40;;;19.10;99.90;;;;;;5063446;28;20027;-63
2022/10/19 10:21:50;;;;;;;14.48;2.40;;;19.10;99.90;;;;;;5037900;28;20666;-63
2022/10/19 10:24:20;;;;;;;10.35;2.28;;;19.10;99.90;;;;;;5063295;28;20192;-62
2022/10/19 10:26:50;;;;;;;9.57;2.15;;;19.10;99.90;;;;;;5055535;28;20025;-63
2022/10/19 10:29:22;;;;;;;15.68;3.88;;;19.00;99.90;;;;;;5058476;28;20489;-62
2022/10/19 10:32:15;;;;;;;15.95;3.88;;;19.00;99.90;;;;;;5033702;28;20478;-63
2022/10/19 10:35:11;;;;;;;11.80;2.53;;;19.10;99.90;;;;;;5043760;28;20059;-62
2022/10/19 10:37:48;;;;;;;10.07;1.90;;;19.00;99.90;;;;;;5050715;28;20040;-63
2022/10/19 10:40:28;;;;;;;7.72;2.40;;;19.00;99.90;;;;;;5048747;28;20025;-62
2022/10/19 10:43:02;;;;;;;10.38;2.75;;;19.00;99.90;;;;;;5064921;28;20067;-62
2022/10/19 10:45:39;;;;;;;14.47;2.70;;;19.00;99.90;;;;;;5043521;28;20389;-62
2022/10/19 10:48:22;;;;;;;6.93;1.85;;;19.00;99.90;;;;;;5039294;28;20036;-62
2022/10/19 10:50:50;;;;;;;10.88;2.90;;;18.90;99.90;;;;;;5045775;28;20040;-61
2022/10/19 10:53:44;;;;;;;10.95;2.40;;;18.90;99.90;;;;;;5046267;28;20041;-63
2022/10/19 10:56:22;;;;;;;16.40;3.50;;;18.90;99.90;;;;;;5053629;28;20024;-62
2022/10/19 10:59:11;;;;;;;13.90;3.08;;;18.80;99.90;;;;;;5049772;28;20040;-61
2022/10/19 11:01:58;;;;;;;12.55;3.17;;;18.80;99.90;;;;;;5050393;28;20660;-63
2022/10/19 11:04:33;;;;;;;14.13;2.80;;;18.80;99.90;;;;;;5063684;28;20145;-63
2022/10/19 11:07:07;;;;;;;11.40;3.10;;;18.80;99.90;;;;;;5054212;28;20016;-62
2022/10/19 11:09:58;;;;;;;14.25;2.33;;;18.80;99.90;;;;;;5056984;28;20099;-61
2022/10/19 11:12:45;;;;;;;9.20;2.35;;;18.80;99.90;;;;;;5058139;28;20472;-63
2022/10/19 11:15:25;;;;;;;12.98;2.67;;;18.80;99.90;;;;;;5059590;28;20013;-60
2022/10/19 11:18:17;;;;;;;11.02;2.05;;;18.90;99.90;;;;;;5052113;28;20033;-62
2022/10/19 11:21:21;;;;;;;8.85;2.40;;;18.90;99.90;;;;;;5049342;28;20024;-66
2022/10/19 11:24:15;;;;;;;11.25;2.75;;;18.90;99.90;;;;;;5045940;28;20051;-64
2022/10/19 11:27:18;;;;;;;15.07;2.83;;;18.90;99.90;;;;;;5050481;28;20430;-64
2022/10/19 11:30:00;;;;;;;13.18;2.63;;;18.80;99.90;;;;;;5029468;28;20076;-64
2022/10/19 11:32:44;;;;;;;10.63;2.95;;;18.80;99.90;;;;;;5054623;28;20612;-64
2022/10/19 11:35:43;;;;;;;10.82;2.65;;;18.80;99.90;;;;;;5052714;28;20060;-63
2022/10/19 11:38:33;;;;;;;6.70;2.40;;;18.70;99.90;;;;;;5053615;28;20066;-64
2022/10/19 11:41:28;;;;;;;16.17;3.50;;;18.70;99.90;;;;;;5059006;28;20025;-64
2022/10/19 11:44:14;;;;;;;11.73;2.58;;;18.70;99.90;;;;;;5052319;28;20029;-64
2022/10/19 11:47:10;;;;;;;15.77;3.53;;;18.60;99.90;;;;;;5038993;28;20025;-64
2022/10/19 11:50:22;;;;;;;15.15;2.60;;;18.60;99.90;;;;;;5056304;28;20021;-64
2022/10/19 11:53:10;;;;;;;9.70;2.80;;;18.60;99.90;;;;;;5048178;28;20090;-63
2022/10/19 11:56:09;;;;;;;11.05;3.00;;;18.50;99.90;;;;;;5053798;28;20028;-64
2022/10/19 11:59:07;;;;;;;15.55;2.72;;;18.50;99.90;;;;;;5063494;28;20021;-64
2022/10/19 12:01:41;;;;;;;12.75;2.47;;;18.40;99.90;;;;;;5028306;28;20069;-64
2022/10/19 12:04:20;;;;;;;18.98;3.33;;;18.30;99.90;;;;;;5045643;28;20100;-64
2022/10/19 12:07:26;;;;;;;16.42;3.30;;;18.30;99.90;;;;;;5051152;28;20025;-63
2022/10/19 12:10:20;;;;;;;7.50;2.45;;;18.20;99.90;;;;;;5044650;28;20107;-64
2022/10/19 12:12:51;;;;;;;10.48;2.72;;;18.10;99.90;;;;;;5040469;28;20024;-63
2022/10/19 12:15:41;;;;;;;12.88;2.78;;;18.10;99.90;;;;;;5055866;28;20032;-64
2022/10/19 12:18:38;;;;;;;19.80;3.13;;;18.00;99.90;;;;;;5055192;28;20385;-64
2022/10/19 12:21:23;;;;;;;13.73;4.00;;;18.00;99.90;;;;;;5046156;28;20029;-64
2022/10/19 12:23:52;;;;;;;18.95;3.85;;;18.00;99.90;;;;;;5048965;28;20025;-64
2022/10/19 12:26:21;;;;;;;12.77;3.15;;;17.90;99.90;;;;;;5064965;28;20374;-63
2022/10/19 12:29:01;;;;;;;23.55;3.92;;;17.90;99.90;;;;;;5053404;28;20379;-63
2022/10/19 12:31:29;;;;;;;13.13;3.75;;;17.90;99.90;;;;;;5056897;28;20037;-64
2022/10/19 12:34:02;;;;;;;12.18;3.40;;;17.90;99.90;;;;;;5055863;28;20430;-63
2022/10/19 12:36:56;;;;;;;10.73;3.08;;;17.90;99.90;;;;;;5049778;28;20096;-63
2022/10/19 12:39:38;;;;;;;11.55;3.03;;;18.00;99.90;;;;;;5060076;28;20025;-63
2022/10/19 12:42:09;;;;;;;11.65;2.85;;;18.00;99.90;;;;;;5052130;28;20481;-64
2022/10/19 12:44:42;;;;;;;11.07;2.60;;;18.00;99.90;;;;;;5051008;28;20032;-64
2022/10/19 12:47:18;;;;;;;20.23;2.95;;;18.10;99.90;;;;;;5060265;28;20453;-64
2022/10/19 12:49:49;;;;;;;10.88;3.30;;;18.10;99.90;;;;;;5048994;28;20032;-63
2022/10/19 12:52:47;;;;;;;14.88;2.85;;;18.10;99.90;;;;;;5037799;28;20056;-63
2022/10/19 12:55:17;;;;;;;15.43;3.03;;;18.10;99.90;;;;;;5044759;28;20370;-63
2022/10/19 12:57:48;;;;;;;9.02;2.83;;;18.10;99.90;;;;;;5042740;28;20049;-63
2022/10/19 13:00:24;;;;;;;9.55;2.78;;;18.10;99.90;;;;;;5056607;28;20025;-64
2022/10/19 13:03:14;;;;;;;11.40;2.55;;;18.10;99.90;;;;;;5051362;28;20070;-63
2022/10/19 13:05:54;;;;;;;6.28;2.72;;;18.10;99.90;;;;;;5047158;28;20087;-63
2022/10/19 13:08:32;;;;;;;10.35;2.83;;;18.20;99.90;;;;;;5051412;28;20017;-64
2022/10/19 13:11:14;;;;;;;9.10;2.92;;;18.20;99.90;;;;;;5061792;28;20040;-62
2022/10/19 13:14:03;;;;;;;14.18;2.53;;;18.10;99.90;;;;;;5054815;28;20584;-64
2022/10/19 13:16:32;;;;;;;10.23;2.92;;;18.10;99.90;;;;;;5054921;28;20025;-64
2022/10/19 13:19:03;;;;;;;11.57;2.75;;;18.10;99.90;;;;;;5053750;28;20071;-64
2022/10/19 13:21:50;;;;;;;16.05;2.90;;;18.10;99.90;;;;;;5048357;28;20053;-64